createdAt,value
2019-05-30T00:00:05.753Z,14.24
2019-05-30T00:02:39.151Z,14.32
2019-05-30T00:05:25.791Z,14.25
2019-05-30T00:08:11.841Z,14.20
2019-05-30T00:10:58.534Z,14.22
2019-05-30T00:13:44.771Z,14.19
2019-05-30T00:16:30.745Z,14.20
2019-05-30T00:19:16.895Z,14.21
2019-05-30T00:22:03.946Z,14.24
2019-05-30T00:24:51.220Z,14.23
2019-05-30T00:27:37.512Z,14.22
2019-05-30T00:30:26.382Z,14.19
2019-05-30T00:33:12.655Z,14.17
2019-05-30T00:35:59.946Z,14.17
2019-05-30T00:38:46.210Z,14.09
2019-05-30T00:41:32.461Z,14.08
2019-05-30T00:44:18.476Z,14.04
2019-05-30T00:47:04.746Z,14.02
2019-05-30T00:49:51.250Z,13.98
2019-05-30T00:52:37.676Z,13.93
2019-05-30T00:55:23.640Z,13.86
2019-05-30T00:58:09.792Z,13.81
2019-05-30T01:00:59.048Z,13.75
2019-05-30T01:03:45.350Z,13.74
2019-05-30T01:06:31.481Z,13.70
2019-05-30T01:09:17.736Z,13.63
2019-05-30T01:12:05.300Z,13.55
2019-05-30T01:14:51.714Z,13.57
2019-05-30T01:17:39.179Z,13.57
2019-05-30T01:20:25.593Z,13.54
2019-05-30T01:23:11.601Z,13.43
2019-05-30T01:25:59.218Z,13.46
2019-05-30T01:28:45.776Z,13.48
2019-05-30T01:31:31.860Z,13.40
2019-05-30T01:34:18.008Z,13.43
2019-05-30T01:37:04.176Z,13.41
2019-05-30T01:39:50.261Z,13.39
2019-05-30T01:42:36.457Z,13.36
2019-05-30T01:45:22.400Z,13.34
2019-05-30T01:48:08.674Z,13.33
2019-05-30T01:50:55.260Z,13.29
2019-05-30T01:53:41.480Z,13.30
2019-05-30T01:56:27.716Z,13.33
2019-05-30T01:59:13.995Z,13.31
2019-05-30T02:02:00.916Z,13.28
2019-05-30T02:04:47.476Z,13.26
2019-05-30T02:07:33.896Z,13.25
2019-05-30T02:10:19.888Z,13.28
2019-05-30T02:13:06.007Z,13.24
2019-05-30T02:15:52.216Z,13.21
2019-05-30T02:18:38.357Z,13.20
2019-05-30T02:21:24.632Z,13.20
2019-05-30T02:24:12.155Z,13.24
2019-05-30T02:27:00.006Z,13.19
2019-05-30T02:29:46.665Z,13.20
2019-05-30T02:32:32.826Z,13.19
2019-05-30T02:35:18.955Z,13.13
2019-05-30T02:38:05.422Z,13.09
2019-05-30T02:40:53.146Z,13.03
2019-05-30T02:43:39.374Z,13.02
2019-05-30T02:46:25.555Z,13.03
2019-05-30T02:49:13.846Z,13.05
2019-05-30T02:51:59.886Z,13.02
2019-05-30T02:54:46.127Z,13.05
2019-05-30T02:57:32.442Z,13.05
2019-05-30T03:00:24.868Z,13.06
2019-05-30T03:03:13.914Z,13.08
2019-05-30T03:05:58.766Z,13.10
2019-05-30T03:08:45.237Z,13.08
2019-05-30T03:11:31.088Z,13.06
2019-05-30T03:14:19.710Z,13.07
2019-05-30T03:17:07.826Z,13.10
2019-05-30T03:19:53.928Z,13.14
2019-05-30T03:22:40.082Z,13.10
2019-05-30T03:25:26.280Z,13.09
2019-05-30T03:28:13.652Z,13.16
2019-05-30T03:30:59.837Z,13.21
2019-05-30T03:33:46.177Z,13.35
2019-05-30T03:36:32.335Z,13.46
2019-05-30T03:39:18.312Z,13.50
2019-05-30T03:42:06.762Z,13.58
2019-05-30T03:44:52.681Z,13.76
2019-05-30T03:47:41.110Z,13.81
2019-05-30T03:50:29.330Z,13.66
2019-05-30T03:53:16.345Z,13.71
2019-05-30T03:56:09.032Z,13.63
2019-05-30T03:59:14.817Z,13.59
2019-05-30T04:02:19.843Z,13.51
2019-05-30T04:05:07.537Z,13.50
2019-05-30T04:07:55.666Z,13.54
2019-05-30T04:10:43.098Z,13.47
2019-05-30T04:13:43.761Z,13.48
2019-05-30T04:16:30.163Z,13.47
2019-05-30T04:19:17.735Z,13.47
2019-05-30T04:22:04.371Z,13.44
2019-05-30T04:24:50.716Z,13.54
2019-05-30T04:27:36.898Z,13.51
2019-05-30T04:30:23.085Z,13.43
2019-05-30T04:33:22.528Z,13.47
2019-05-30T04:35:57.551Z,13.54
2019-05-30T04:38:43.717Z,13.60
2019-05-30T04:41:30.003Z,13.63
2019-05-30T04:44:17.929Z,13.57
2019-05-30T04:47:04.176Z,13.55
2019-05-30T04:49:50.667Z,13.58
2019-05-30T04:52:36.600Z,13.60
2019-05-30T04:55:23.225Z,13.59
2019-05-30T04:58:11.004Z,13.65
2019-05-30T05:00:57.821Z,13.70
2019-05-30T05:03:46.525Z,13.69
2019-05-30T05:06:31.987Z,13.74
2019-05-30T05:09:20.120Z,13.85
2019-05-30T05:12:06.516Z,14.04
2019-05-30T05:14:52.621Z,14.24
2019-05-30T05:17:39.091Z,14.38
2019-05-30T05:20:26.616Z,14.40
2019-05-30T05:23:13.060Z,14.50
2019-05-30T05:26:01.316Z,14.67
2019-05-30T05:28:47.796Z,14.77
2019-05-30T05:31:33.806Z,14.42
2019-05-30T05:34:21.351Z,14.43
2019-05-30T05:37:07.445Z,14.48
2019-05-30T05:39:53.720Z,14.57
2019-05-30T05:42:39.990Z,14.42
2019-05-30T05:45:26.155Z,14.40
2019-05-30T05:48:12.310Z,14.42
2019-05-30T05:50:58.840Z,14.48
2019-05-30T05:53:44.975Z,14.44
2019-05-30T05:56:31.174Z,14.60
2019-05-30T05:59:18.851Z,14.73
2019-05-30T06:02:07.322Z,14.71
2019-05-30T06:04:53.508Z,14.93
2019-05-30T06:07:39.670Z,15.01
2019-05-30T06:10:25.872Z,15.09
2019-05-30T06:13:11.828Z,15.16
2019-05-30T06:15:58.031Z,15.22
2019-05-30T06:18:44.035Z,15.29
2019-05-30T06:21:30.331Z,15.34
2019-05-30T06:24:17.645Z,15.58
2019-05-30T06:27:04.001Z,15.57
2019-05-30T06:29:50.353Z,15.70
2019-05-30T06:32:36.281Z,15.63
2019-05-30T06:35:23.001Z,15.77
2019-05-30T06:38:09.380Z,15.83
2019-05-30T06:40:55.250Z,15.85
2019-05-30T06:43:41.291Z,15.82
2019-05-30T06:46:28.394Z,15.99
2019-05-30T06:49:15.066Z,16.14
2019-05-30T06:52:01.279Z,16.32
2019-05-30T06:54:47.477Z,16.43
2019-05-30T06:57:33.481Z,16.67
2019-05-30T07:00:21.732Z,16.86
2019-05-30T07:03:07.995Z,16.84
2019-05-30T07:05:54.470Z,17.00
2019-05-30T07:08:41.006Z,16.96
2019-05-30T07:11:27.256Z,17.10
2019-05-30T07:14:13.330Z,17.05
2019-05-30T07:16:59.381Z,17.23
2019-05-30T07:19:45.545Z,17.26
2019-05-30T07:22:31.910Z,17.00
2019-05-30T07:25:18.412Z,16.73
2019-05-30T07:28:04.911Z,16.85
2019-05-30T07:30:50.975Z,16.80
2019-05-30T07:33:37.147Z,17.01
2019-05-30T07:36:24.076Z,17.18
2019-05-30T07:39:10.471Z,17.02
2019-05-30T07:42:06.143Z,16.69
2019-05-30T07:44:45.046Z,17.01
2019-05-30T07:47:32.155Z,16.74
2019-05-30T07:50:19.442Z,17.07
2019-05-30T07:53:05.683Z,17.01
2019-05-30T07:55:51.869Z,16.91
2019-05-30T07:58:37.980Z,17.09
2019-05-30T08:01:24.095Z,17.39
2019-05-30T08:04:10.291Z,17.35
2019-05-30T08:06:56.535Z,17.33
2019-05-30T08:09:42.717Z,17.75
2019-05-30T08:12:30.078Z,18.03
2019-05-30T08:15:16.436Z,17.83
2019-05-30T08:18:02.722Z,18.13
2019-05-30T08:20:48.875Z,17.73
2019-05-30T08:23:36.217Z,17.64
2019-05-30T08:26:22.751Z,17.76
2019-05-30T08:29:08.660Z,17.72
2019-05-30T08:31:54.916Z,17.87
2019-05-30T08:34:41.065Z,18.25
2019-05-30T08:37:27.161Z,18.34
2019-05-30T08:40:13.947Z,18.21
2019-05-30T08:43:00.105Z,18.11
2019-05-30T08:45:46.412Z,18.12
2019-05-30T08:48:33.288Z,18.10
2019-05-30T08:51:20.910Z,17.74
2019-05-30T08:54:07.087Z,17.53
2019-05-30T08:56:53.316Z,17.30
2019-05-30T08:59:40.643Z,17.28
2019-05-30T09:02:27.054Z,17.54
2019-05-30T09:05:14.643Z,17.71
2019-05-30T09:08:00.757Z,17.70
2019-05-30T09:10:46.798Z,17.72
2019-05-30T09:13:33.295Z,17.55
2019-05-30T09:16:19.096Z,17.53
2019-05-30T09:19:05.268Z,17.96
2019-05-30T09:21:52.337Z,18.01
2019-05-30T09:24:39.153Z,18.22
2019-05-30T09:27:26.661Z,18.36
2019-05-30T09:30:13.351Z,18.51
2019-05-30T09:32:59.150Z,18.47
2019-05-30T09:35:45.246Z,19.04
2019-05-30T09:38:31.432Z,18.97
2019-05-30T09:41:17.550Z,18.48
2019-05-30T09:44:04.880Z,19.11
2019-05-30T09:46:50.676Z,19.29
2019-05-30T09:49:36.910Z,19.04
2019-05-30T09:52:23.101Z,19.46
2019-05-30T09:55:09.631Z,19.17
2019-05-30T09:57:55.751Z,19.24
2019-05-30T10:00:43.469Z,19.12
2019-05-30T10:03:30.302Z,18.72
2019-05-30T10:06:28.444Z,19.11
2019-05-30T10:09:07.173Z,18.72
2019-05-30T10:11:53.550Z,18.96
2019-05-30T10:14:39.886Z,19.31
2019-05-30T10:17:26.057Z,19.38
2019-05-30T10:20:13.747Z,18.69
2019-05-30T10:23:03.312Z,18.69
2019-05-30T10:25:48.406Z,19.06
2019-05-30T10:28:35.616Z,18.95
2019-05-30T10:31:21.796Z,18.82
2019-05-30T10:34:07.786Z,19.07
2019-05-30T10:36:54.239Z,19.34
2019-05-30T10:39:40.379Z,19.55
2019-05-30T10:42:26.663Z,18.93
2019-05-30T10:45:13.520Z,19.11
2019-05-30T10:47:59.960Z,18.92
2019-05-30T10:50:48.268Z,19.00
2019-05-30T10:53:37.482Z,19.39
2019-05-30T10:56:22.719Z,19.58
2019-05-30T10:59:08.741Z,19.90
2019-05-30T11:01:54.919Z,19.58
2019-05-30T11:04:41.049Z,19.57
2019-05-30T11:08:03.856Z,19.35
2019-05-30T11:10:43.622Z,19.46
2019-05-30T11:13:29.667Z,19.70
2019-05-30T11:16:16.006Z,19.81
2019-05-30T11:19:07.228Z,19.69
2019-05-30T11:21:50.260Z,19.22
2019-05-30T11:24:36.460Z,18.96
2019-05-30T11:27:22.780Z,19.13
2019-05-30T11:30:09.420Z,19.09
2019-05-30T11:32:55.380Z,18.65
2019-05-30T11:35:41.480Z,18.85
2019-05-30T11:38:27.919Z,18.85
2019-05-30T11:41:16.399Z,18.96
2019-05-30T11:44:04.200Z,19.14
2019-05-30T11:46:51.820Z,19.22
2019-05-30T11:49:38.889Z,19.08
2019-05-30T11:52:25.361Z,19.18
2019-05-30T11:55:12.380Z,19.11
2019-05-30T11:57:58.523Z,19.35
2019-05-30T12:00:45.321Z,19.48
2019-05-30T12:03:31.597Z,19.64
2019-05-30T12:06:18.040Z,19.65
2019-05-30T12:09:06.809Z,19.89
2019-05-30T12:11:53.181Z,19.86
2019-05-30T12:14:39.621Z,19.80
2019-05-30T12:17:25.820Z,19.77
2019-05-30T12:20:12.360Z,19.54
2019-05-30T12:22:58.480Z,19.50
2019-05-30T12:25:44.879Z,19.74
2019-05-30T12:28:30.800Z,19.66
2019-05-30T12:31:16.959Z,19.65
2019-05-30T12:34:03.679Z,19.55
2019-05-30T12:36:49.840Z,19.29
2019-05-30T12:39:36.341Z,19.51
2019-05-30T12:42:22.439Z,19.48
2019-05-30T12:45:09.302Z,19.52
2019-05-30T12:47:55.259Z,19.25
2019-05-30T12:50:41.542Z,19.20
2019-05-30T12:53:27.665Z,19.17
2019-05-30T12:56:13.947Z,19.11
2019-05-30T12:59:01.098Z,19.03
2019-05-30T13:01:47.653Z,19.00
2019-05-30T13:04:33.977Z,18.97
2019-05-30T13:07:19.934Z,18.90
2019-05-30T13:10:07.914Z,18.93
2019-05-30T13:12:53.792Z,18.82
2019-05-30T13:15:40.027Z,18.66
2019-05-30T13:18:26.147Z,18.94
2019-05-30T13:21:12.402Z,19.05
2019-05-30T13:23:59.578Z,19.05
2019-05-30T13:26:45.548Z,19.20
2019-05-30T13:29:32.013Z,19.16
2019-05-30T13:32:17.872Z,18.96
2019-05-30T13:35:05.423Z,19.10
2019-05-30T13:37:51.847Z,19.14
2019-05-30T13:40:38.117Z,19.09
2019-05-30T13:43:27.748Z,19.10
2019-05-30T13:46:12.917Z,19.14
2019-05-30T13:49:00.825Z,19.22
2019-05-30T13:51:47.577Z,19.25
2019-05-30T13:54:33.547Z,19.29
2019-05-30T13:57:19.577Z,19.18
2019-05-30T14:00:08.138Z,19.25
2019-05-30T14:02:54.589Z,19.34
2019-05-30T14:05:41.018Z,19.34
2019-05-30T14:08:40.780Z,19.41
2019-05-30T14:11:16.307Z,19.41
2019-05-30T14:14:02.800Z,19.41
2019-05-30T14:16:49.126Z,19.52
2019-05-30T14:19:36.345Z,19.59
2019-05-30T14:22:22.643Z,19.34
2019-05-30T14:25:09.775Z,19.41
2019-05-30T14:27:55.732Z,19.25
2019-05-30T14:30:43.042Z,19.10
2019-05-30T14:33:29.262Z,19.20
2019-05-30T14:36:15.441Z,19.17
2019-05-30T14:39:02.600Z,19.26
2019-05-30T14:41:49.147Z,19.16
2019-05-30T14:44:35.317Z,19.29
2019-05-30T14:47:21.788Z,19.41
2019-05-30T14:50:08.993Z,19.36
2019-05-30T14:52:55.223Z,19.43
2019-05-30T14:55:41.532Z,19.42
2019-05-30T14:58:27.675Z,19.14
2019-05-30T15:01:13.962Z,19.14
2019-05-30T15:03:59.952Z,19.13
2019-05-30T15:06:46.131Z,19.33
2019-05-30T15:09:32.358Z,19.23
2019-05-30T15:12:18.487Z,19.10
2019-05-30T15:15:07.333Z,19.22
2019-05-30T15:17:53.085Z,19.27
2019-05-30T15:20:39.053Z,19.06
2019-05-30T15:23:25.208Z,19.21
2019-05-30T15:26:12.124Z,19.11
2019-05-30T15:28:58.253Z,19.17
2019-05-30T15:31:44.442Z,19.28
2019-05-30T15:34:30.912Z,19.37
2019-05-30T15:37:17.107Z,19.27
2019-05-30T15:40:03.242Z,19.05
2019-05-30T15:42:53.060Z,19.01
2019-05-30T15:45:38.024Z,19.08
2019-05-30T15:48:24.142Z,19.18
2019-05-30T15:51:10.611Z,19.17
2019-05-30T15:53:56.698Z,19.22
2019-05-30T15:56:42.987Z,19.11
2019-05-30T15:59:29.313Z,19.10
2019-05-30T16:02:16.114Z,18.99
2019-05-30T16:05:04.497Z,18.99
2019-05-30T16:07:50.913Z,19.03
2019-05-30T16:10:37.208Z,19.05
2019-05-30T16:13:23.432Z,18.92
2019-05-30T16:16:09.808Z,18.88
2019-05-30T16:18:56.014Z,18.91
2019-05-30T16:21:42.113Z,18.94
2019-05-30T16:24:29.477Z,18.59
2019-05-30T16:27:15.855Z,18.80
2019-05-30T16:30:02.813Z,18.73
2019-05-30T16:32:49.767Z,18.74
2019-05-30T16:35:35.708Z,18.77
2019-05-30T16:38:22.248Z,18.83
2019-05-30T16:41:08.167Z,18.68
2019-05-30T16:43:54.143Z,18.71
2019-05-30T16:46:40.374Z,18.71
2019-05-30T16:49:26.946Z,18.67
2019-05-30T16:52:13.061Z,18.79
2019-05-30T16:54:59.342Z,18.65
2019-05-30T16:57:45.448Z,18.66
2019-05-30T17:00:31.549Z,18.78
2019-05-30T17:03:17.844Z,18.81
2019-05-30T17:06:04.157Z,18.83
2019-05-30T17:08:50.138Z,18.76
2019-05-30T17:11:36.238Z,19.06
2019-05-30T17:14:22.462Z,19.03
2019-05-30T17:17:08.654Z,18.96
2019-05-30T17:19:54.738Z,18.72
2019-05-30T17:22:40.912Z,18.75
2019-05-30T17:25:27.259Z,18.76
2019-05-30T17:28:14.993Z,18.48
2019-05-30T17:31:01.297Z,18.33
2019-05-30T17:33:47.662Z,18.49
2019-05-30T17:36:33.802Z,18.74
2019-05-30T17:39:20.418Z,18.99
2019-05-30T17:42:06.645Z,19.01
2019-05-30T17:44:52.772Z,18.85
2019-05-30T17:47:38.893Z,18.92
2019-05-30T17:50:25.814Z,18.80
2019-05-30T17:53:12.337Z,18.78
2019-05-30T17:55:59.474Z,18.89
2019-05-30T17:58:46.293Z,18.94
2019-05-30T18:01:32.167Z,18.96
2019-05-30T18:04:18.348Z,19.08
2019-05-30T18:07:04.797Z,19.14
2019-05-30T18:09:50.817Z,19.01
2019-05-30T18:12:37.033Z,19.01
2019-05-30T18:15:26.266Z,18.80
2019-05-30T18:18:11.502Z,18.71
2019-05-30T18:20:57.653Z,18.81
2019-05-30T18:23:44.840Z,18.67
2019-05-30T18:26:31.861Z,18.64
2019-05-30T18:29:19.055Z,18.48
2019-05-30T18:32:05.512Z,18.48
2019-05-30T18:34:51.599Z,18.43
2019-05-30T18:37:38.090Z,18.41
2019-05-30T18:40:33.268Z,18.41
2019-05-30T18:43:19.598Z,18.38
2019-05-30T18:46:05.774Z,18.36
2019-05-30T18:48:51.853Z,18.19
2019-05-30T18:51:38.062Z,18.13
2019-05-30T18:54:24.419Z,18.17
2019-05-30T18:57:11.083Z,18.08
2019-05-30T18:59:57.205Z,18.10
2019-05-30T19:02:43.178Z,18.02
2019-05-30T19:05:30.413Z,17.96
2019-05-30T19:08:17.033Z,17.99
2019-05-30T19:11:03.377Z,18.01
2019-05-30T19:13:50.137Z,18.06
2019-05-30T19:16:37.085Z,17.90
2019-05-30T19:19:23.225Z,17.74
2019-05-30T19:22:09.408Z,17.72
2019-05-30T19:24:56.463Z,17.69
2019-05-30T19:27:42.758Z,17.62
2019-05-30T19:30:29.107Z,17.63
2019-05-30T19:33:15.527Z,17.58
2019-05-30T19:36:01.774Z,17.60
2019-05-30T19:38:47.817Z,17.53
2019-05-30T19:41:45.932Z,17.53
2019-05-30T19:44:22.232Z,17.49
2019-05-30T19:47:08.358Z,17.46
2019-05-30T19:49:54.593Z,17.41
2019-05-30T19:52:41.208Z,17.31
2019-05-30T19:55:27.440Z,17.18
2019-05-30T19:58:14.514Z,17.16
2019-05-30T20:01:00.557Z,17.19
2019-05-30T20:03:47.181Z,17.16
2019-05-30T20:06:34.591Z,17.15
2019-05-30T20:09:21.167Z,17.24
2019-05-30T20:12:08.935Z,17.26
2019-05-30T20:14:55.563Z,17.26
2019-05-30T20:17:42.015Z,17.20
2019-05-30T20:20:28.303Z,17.23
2019-05-30T20:23:14.402Z,17.23
2019-05-30T20:26:00.527Z,17.27
2019-05-30T20:28:46.762Z,17.26
2019-05-30T20:31:33.317Z,17.22
2019-05-30T20:34:19.330Z,17.25
2019-05-30T20:37:05.604Z,17.25
2019-05-30T20:39:51.622Z,17.23
2019-05-30T20:42:38.879Z,17.25
2019-05-30T20:45:25.472Z,17.27
2019-05-30T20:48:11.473Z,17.24
2019-05-30T20:50:57.607Z,17.22
2019-05-30T20:53:43.906Z,17.21
2019-05-30T20:56:30.037Z,17.16
2019-05-30T20:59:16.033Z,17.15
2019-05-30T21:02:02.283Z,17.12
2019-05-30T21:04:48.478Z,17.14
2019-05-30T21:07:35.865Z,17.12
2019-05-30T21:10:22.428Z,17.12
2019-05-30T21:13:08.412Z,17.09
2019-05-30T21:15:56.063Z,17.12
2019-05-30T21:18:45.937Z,17.07
2019-05-30T21:21:32.214Z,17.06
2019-05-30T21:24:18.307Z,17.07
2019-05-30T21:27:04.834Z,17.12
2019-05-30T21:29:50.684Z,17.12
2019-05-30T21:32:37.669Z,17.12
2019-05-30T21:35:24.982Z,17.16
2019-05-30T21:38:11.013Z,17.24
2019-05-30T21:40:57.162Z,17.23
2019-05-30T21:43:44.475Z,17.22
2019-05-30T21:46:31.525Z,17.31
2019-05-30T21:49:17.812Z,17.34
2019-05-30T21:52:04.138Z,17.38
2019-05-30T21:54:50.307Z,17.40
2019-05-30T21:57:39.767Z,17.37
2019-05-30T22:01:00.456Z,17.35
2019-05-30T22:03:47.072Z,17.31
2019-05-30T22:06:33.232Z,17.28
2019-05-30T22:09:19.257Z,17.22
2019-05-30T22:12:05.562Z,17.21
2019-05-30T22:14:51.979Z,17.31
2019-05-30T22:17:38.392Z,17.30
2019-05-30T22:20:24.659Z,17.27
2019-05-30T22:23:11.178Z,17.28
2019-05-30T22:25:57.540Z,17.26
2019-05-30T22:28:44.367Z,17.29
2019-05-30T22:31:30.892Z,17.30
2019-05-30T22:34:18.027Z,17.31
2019-05-30T22:37:04.214Z,17.32
2019-05-30T22:39:51.014Z,17.37
2019-05-30T22:42:37.352Z,17.34
2019-05-30T22:45:23.380Z,17.35
2019-05-30T22:48:09.513Z,17.34
2019-05-30T22:50:56.940Z,17.36
2019-05-30T22:53:43.344Z,17.33
2019-05-30T22:56:29.367Z,17.36
2019-05-30T22:59:15.798Z,17.36
2019-05-30T23:04:42.892Z,17.43
2019-05-30T23:07:29.970Z,17.38
2019-05-30T23:10:16.854Z,17.47
2019-05-30T23:13:03.330Z,17.46
2019-05-30T23:15:50.084Z,17.47
2019-05-30T23:18:36.547Z,17.42
2019-05-30T23:21:22.814Z,17.35
2019-05-30T23:24:09.092Z,17.38
2019-05-30T23:26:55.878Z,17.40
2019-05-30T23:29:42.272Z,17.28
2019-05-30T23:32:28.736Z,17.32
2019-05-30T23:35:15.242Z,17.32
2019-05-30T23:38:01.769Z,17.36
2019-05-30T23:40:48.935Z,17.32
2019-05-30T23:43:36.685Z,17.19
2019-05-30T23:46:23.262Z,17.29
